createdAt,value
2023-05-14T00:00:11.663Z,73.18
2023-05-14T00:03:00.372Z,73.63
2023-05-14T00:05:29.570Z,73.58
2023-05-14T00:07:58.195Z,74.04
2023-05-14T00:10:27.898Z,73.78
2023-05-14T00:12:56.575Z,74.00
2023-05-14T00:15:25.380Z,73.91
2023-05-14T00:17:54.114Z,74.01
2023-05-14T00:20:23.066Z,73.94
2023-05-14T00:22:52.997Z,74.29
2023-05-14T00:25:21.763Z,74.53
2023-05-14T00:27:50.339Z,74.62
2023-05-14T00:30:20.644Z,75.01
2023-05-14T00:32:49.314Z,75.12
2023-05-14T00:35:18.248Z,75.16
2023-05-14T00:37:46.844Z,75.44
2023-05-14T00:40:15.916Z,75.46
2023-05-14T00:42:44.609Z,75.84
2023-05-14T00:45:14.737Z,75.66
2023-05-14T00:47:44.559Z,75.82
2023-05-14T00:50:13.926Z,75.89
2023-05-14T00:52:43.144Z,76.55
2023-05-14T00:55:17.118Z,76.76
2023-05-14T00:57:46.993Z,77.56
2023-05-14T01:00:16.054Z,77.85
2023-05-14T01:02:44.656Z,78.01
2023-05-14T01:05:13.751Z,78.37
2023-05-14T01:07:54.811Z,78.33
2023-05-14T01:10:38.639Z,78.12
2023-05-14T01:13:18.772Z,78.33
2023-05-14T01:15:49.037Z,78.64
2023-05-14T01:18:19.869Z,78.52
2023-05-14T01:20:51.888Z,78.62
2023-05-14T01:23:20.610Z,79.13
2023-05-14T01:25:49.118Z,79.30
2023-05-14T01:28:29.993Z,79.47
2023-05-14T01:31:07.424Z,79.56
2023-05-14T01:33:37.751Z,79.62
2023-05-14T01:36:06.967Z,79.92
2023-05-14T01:38:37.208Z,79.77
2023-05-14T01:41:05.869Z,79.70
2023-05-14T01:43:35.541Z,79.84
2023-05-14T01:46:05.334Z,79.94
2023-05-14T01:48:34.195Z,80.00
2023-05-14T01:51:03.200Z,79.85
2023-05-14T01:53:31.882Z,79.91
2023-05-14T01:56:00.749Z,79.74
2023-05-14T01:58:29.326Z,79.58
2023-05-14T02:00:58.154Z,79.88
2023-05-14T02:03:28.072Z,80.27
2023-05-14T02:05:56.929Z,80.45
2023-05-14T02:08:28.765Z,80.67
2023-05-14T02:10:58.911Z,80.95
2023-05-14T02:13:27.925Z,81.26
2023-05-14T02:15:57.563Z,81.41
2023-05-14T02:18:29.002Z,81.47
2023-05-14T02:20:58.390Z,81.56
2023-05-14T02:23:37.667Z,81.98
2023-05-14T02:26:10.811Z,82.19
2023-05-14T02:28:39.607Z,82.26
2023-05-14T02:31:08.922Z,82.27
2023-05-14T02:33:37.905Z,82.17
2023-05-14T02:36:07.272Z,82.21
2023-05-14T02:38:36.071Z,81.78
2023-05-14T02:41:07.247Z,82.28
2023-05-14T02:43:39.260Z,82.65
2023-05-14T02:46:11.244Z,83.13
2023-05-14T02:48:44.174Z,83.54
2023-05-14T02:51:18.212Z,83.77
2023-05-14T02:53:50.702Z,84.01
2023-05-14T02:56:24.310Z,82.96
2023-05-14T02:58:57.900Z,83.21
2023-05-14T03:01:33.551Z,84.37
2023-05-14T03:04:04.588Z,84.75
2023-05-14T03:06:38.427Z,85.23
2023-05-14T03:09:10.328Z,84.98
2023-05-14T03:11:40.483Z,85.31
2023-05-14T03:14:09.077Z,85.37
2023-05-14T03:16:38.011Z,85.76
2023-05-14T03:19:06.822Z,85.89
2023-05-14T03:21:36.687Z,86.12
2023-05-14T03:24:10.906Z,86.41
2023-05-14T03:26:43.181Z,86.84
2023-05-14T03:29:19.715Z,86.64
2023-05-14T03:31:54.738Z,86.23
2023-05-14T03:34:29.572Z,86.62
2023-05-14T03:37:01.558Z,86.49
2023-05-14T03:39:37.381Z,86.84
2023-05-14T03:42:11.062Z,86.86
2023-05-14T03:44:45.538Z,86.58
2023-05-14T03:47:18.734Z,86.67
2023-05-14T03:49:51.423Z,86.57
2023-05-14T03:52:22.760Z,86.66
2023-05-14T03:54:52.456Z,86.48
2023-05-14T03:57:21.731Z,86.38
2023-05-14T03:59:50.639Z,86.33
2023-05-14T04:02:21.017Z,86.52
2023-05-14T04:04:52.207Z,86.37
2023-05-14T04:07:22.411Z,86.34
2023-05-14T04:09:55.289Z,85.89
2023-05-14T04:12:27.111Z,85.91
2023-05-14T04:15:00.251Z,85.92
2023-05-14T04:17:36.016Z,85.59
2023-05-14T04:20:09.775Z,85.39
2023-05-14T04:22:42.129Z,84.93
2023-05-14T04:25:15.356Z,84.55
2023-05-14T04:27:51.245Z,84.63
2023-05-14T04:30:24.074Z,84.45
2023-05-14T04:32:57.580Z,84.20
2023-05-14T04:35:35.069Z,84.11
2023-05-14T04:38:04.684Z,84.07
2023-05-14T04:40:33.595Z,83.60
2023-05-14T04:43:02.277Z,82.92
2023-05-14T04:45:34.058Z,83.24
2023-05-14T04:48:04.579Z,83.40
2023-05-14T04:50:33.259Z,82.95
2023-05-14T04:53:02.248Z,83.00
2023-05-14T04:55:30.820Z,82.32
2023-05-14T04:57:59.710Z,81.95
2023-05-14T05:00:29.078Z,80.87
2023-05-14T05:03:00.682Z,80.42
2023-05-14T05:05:32.823Z,79.97
2023-05-14T05:08:07.565Z,79.61
2023-05-14T05:10:39.483Z,79.61
2023-05-14T05:13:16.595Z,79.36
2023-05-14T05:15:47.749Z,78.86
2023-05-14T05:18:20.623Z,78.74
2023-05-14T05:20:53.303Z,78.20
2023-05-14T05:23:26.942Z,77.95
2023-05-14T05:25:58.921Z,77.15
2023-05-14T05:28:31.831Z,76.66
2023-05-14T05:31:04.484Z,76.15
2023-05-14T05:33:33.065Z,75.78
2023-05-14T05:36:02.390Z,75.46
2023-05-14T05:38:34.553Z,75.37
2023-05-14T05:41:09.414Z,75.38
2023-05-14T05:43:44.456Z,74.95
2023-05-14T05:46:18.160Z,74.68
2023-05-14T05:48:54.542Z,74.36
2023-05-14T05:51:27.046Z,73.96
2023-05-14T05:54:03.771Z,73.83
2023-05-14T05:56:37.506Z,73.62
2023-05-14T05:59:10.560Z,73.23
2023-05-14T06:01:43.594Z,73.14
2023-05-14T06:04:20.196Z,72.97
2023-05-14T06:06:51.983Z,72.48
2023-05-14T06:09:22.119Z,72.06
2023-05-14T06:11:50.911Z,71.55
2023-05-14T06:14:19.692Z,70.87
2023-05-14T06:16:48.649Z,70.52
2023-05-14T06:19:17.604Z,70.23
2023-05-14T06:21:46.473Z,69.83
2023-05-14T06:24:15.369Z,69.63
2023-05-14T06:26:44.050Z,69.41
2023-05-14T06:29:13.158Z,68.97
2023-05-14T06:31:41.960Z,68.85
2023-05-14T06:34:11.336Z,69.09
2023-05-14T06:36:41.175Z,69.15
2023-05-14T06:39:10.542Z,68.86
2023-05-14T06:41:39.446Z,68.33
2023-05-14T06:44:13.117Z,67.69
2023-05-14T06:46:46.136Z,66.47
2023-05-14T06:49:16.294Z,65.71
2023-05-14T06:51:45.360Z,64.78
2023-05-14T06:54:13.928Z,63.63
2023-05-14T06:56:42.711Z,63.26
2023-05-14T06:59:11.825Z,62.70
2023-05-14T07:01:41.401Z,62.55
2023-05-14T07:04:10.219Z,61.88
2023-05-14T07:06:39.456Z,61.04
2023-05-14T07:09:08.594Z,61.05
2023-05-14T07:11:37.299Z,60.84
2023-05-14T07:14:06.584Z,60.36
2023-05-14T07:16:35.676Z,59.74
2023-05-14T07:19:06.777Z,59.31
2023-05-14T07:21:36.943Z,59.18
2023-05-14T07:24:06.544Z,58.95
2023-05-14T07:26:35.647Z,59.22
2023-05-14T07:29:04.749Z,58.48
2023-05-14T07:31:34.278Z,57.66
2023-05-14T07:34:04.781Z,58.06
2023-05-14T07:36:33.664Z,58.48
2023-05-14T07:39:02.957Z,59.14
2023-05-14T07:41:31.634Z,58.01
2023-05-14T07:44:01.655Z,57.04
2023-05-14T07:46:30.543Z,56.75
2023-05-14T07:48:59.346Z,56.46
2023-05-14T07:51:30.381Z,56.16
2023-05-14T07:54:01.402Z,55.51
2023-05-14T07:56:31.117Z,55.62
2023-05-14T07:59:00.008Z,56.21
2023-05-14T08:01:28.795Z,54.94
2023-05-14T08:03:57.683Z,54.01
2023-05-14T08:06:30.172Z,53.84
2023-05-14T08:08:58.754Z,53.67
2023-05-14T08:11:27.537Z,54.09
2023-05-14T08:13:56.240Z,54.35
2023-05-14T08:16:26.565Z,54.61
2023-05-14T08:18:55.309Z,54.09
2023-05-14T08:21:24.017Z,53.77
2023-05-14T08:23:52.703Z,53.63
2023-05-14T08:26:24.619Z,52.73
2023-05-14T08:28:55.429Z,52.49
2023-05-14T08:31:25.279Z,52.16
2023-05-14T08:33:54.028Z,52.15
2023-05-14T08:36:23.942Z,51.32
2023-05-14T08:38:52.522Z,51.31
2023-05-14T08:41:22.641Z,50.26
2023-05-14T08:44:07.734Z,49.96
2023-05-14T08:46:38.728Z,50.43
2023-05-14T08:49:30.051Z,51.16
2023-05-14T08:51:59.158Z,51.18
2023-05-14T08:54:30.497Z,50.54
2023-05-14T08:56:59.899Z,50.84
2023-05-14T08:59:32.718Z,51.62
2023-05-14T09:02:08.083Z,51.56
2023-05-14T09:04:42.839Z,51.46
2023-05-14T09:07:14.590Z,51.15
2023-05-14T09:09:45.558Z,51.04
2023-05-14T09:12:14.528Z,50.43
2023-05-14T09:14:44.746Z,48.91
2023-05-14T09:17:13.883Z,49.21
2023-05-14T09:19:43.978Z,50.90
2023-05-14T09:22:14.077Z,50.86
2023-05-14T09:24:43.191Z,50.36
2023-05-14T09:27:21.961Z,51.99
2023-05-14T09:29:50.678Z,52.39
2023-05-14T09:32:21.004Z,51.42
2023-05-14T09:34:50.640Z,50.43
2023-05-14T09:37:19.409Z,50.34
2023-05-14T09:39:48.088Z,49.35
2023-05-14T09:42:17.091Z,48.86
2023-05-14T09:44:47.019Z,48.91
2023-05-14T09:47:16.440Z,50.45
2023-05-14T09:49:50.998Z,48.55
2023-05-14T09:52:20.320Z,48.82
2023-05-14T09:54:49.326Z,50.29
2023-05-14T09:57:17.921Z,49.23
2023-05-14T09:59:47.003Z,48.61
2023-05-14T10:02:27.623Z,47.04
2023-05-14T10:04:59.210Z,47.60
2023-05-14T10:07:34.505Z,48.35
2023-05-14T10:10:13.934Z,47.92
2023-05-14T10:12:55.363Z,47.47
2023-05-14T10:15:38.609Z,46.66
2023-05-14T10:18:19.709Z,45.49
2023-05-14T10:20:52.776Z,45.99
2023-05-14T10:23:21.458Z,45.38
2023-05-14T10:25:50.457Z,46.33
2023-05-14T10:28:19.648Z,45.21
2023-05-14T10:30:49.076Z,45.05
2023-05-14T10:33:19.008Z,46.45
2023-05-14T10:36:08.040Z,46.27
2023-05-14T10:38:38.056Z,46.02
2023-05-14T10:41:12.538Z,45.30
2023-05-14T10:43:46.199Z,44.11
2023-05-14T10:46:15.500Z,45.47
2023-05-14T10:48:44.764Z,46.97
2023-05-14T10:51:14.765Z,48.27
2023-05-14T10:53:43.597Z,47.27
2023-05-14T10:56:15.237Z,46.34
2023-05-14T10:58:45.548Z,47.16
2023-05-14T11:01:14.749Z,46.51
2023-05-14T11:03:45.960Z,45.60
2023-05-14T11:06:16.373Z,45.86
2023-05-14T11:08:47.613Z,45.04
2023-05-14T11:11:19.506Z,45.39
2023-05-14T11:13:48.527Z,45.02
2023-05-14T11:16:23.159Z,43.71
2023-05-14T11:19:05.852Z,43.65
2023-05-14T11:21:34.570Z,44.63
2023-05-14T11:24:05.813Z,43.90
2023-05-14T11:26:34.735Z,43.88
2023-05-14T11:29:05.339Z,43.37
2023-05-14T11:31:34.009Z,43.33
2023-05-14T11:34:04.525Z,43.90
2023-05-14T11:36:33.115Z,43.51
2023-05-14T11:39:01.903Z,44.21
2023-05-14T11:41:31.834Z,44.33
2023-05-14T11:44:00.509Z,43.90
2023-05-14T11:46:32.684Z,42.57
2023-05-14T11:49:11.245Z,42.07
2023-05-14T11:51:41.724Z,41.57
2023-05-14T11:54:10.910Z,43.36
2023-05-14T11:56:39.902Z,44.83
2023-05-14T11:59:11.257Z,44.52
2023-05-14T12:01:40.242Z,44.45
2023-05-14T12:04:08.997Z,46.34
2023-05-14T12:06:39.755Z,46.16
2023-05-14T12:09:08.454Z,46.33
2023-05-14T12:11:37.737Z,45.24
2023-05-14T12:14:23.120Z,46.83
2023-05-14T12:16:52.231Z,47.13
2023-05-14T12:19:23.833Z,45.82
2023-05-14T12:21:54.303Z,44.96
2023-05-14T12:24:26.152Z,45.40
2023-05-14T12:26:55.967Z,45.33
2023-05-14T12:29:27.025Z,43.85
2023-05-14T12:31:59.788Z,42.91
2023-05-14T12:34:28.633Z,42.43
2023-05-14T12:36:57.804Z,42.12
2023-05-14T12:39:27.406Z,41.84
2023-05-14T12:41:56.537Z,43.17
2023-05-14T12:44:25.782Z,43.78
2023-05-14T12:46:54.977Z,44.09
2023-05-14T12:49:23.779Z,43.99
2023-05-14T12:52:03.238Z,44.56
2023-05-14T12:54:43.795Z,44.27
2023-05-14T12:57:12.576Z,42.81
2023-05-14T12:59:41.863Z,43.96
2023-05-14T13:02:11.052Z,44.21
2023-05-14T13:04:39.559Z,43.73
2023-05-14T13:07:09.247Z,44.36
2023-05-14T13:09:38.229Z,44.77
2023-05-14T13:12:07.564Z,45.21
2023-05-14T13:14:37.658Z,46.40
2023-05-14T13:17:07.560Z,45.54
2023-05-14T13:19:36.361Z,45.02
2023-05-14T13:22:05.289Z,46.08
2023-05-14T13:24:34.793Z,45.88
2023-05-14T13:27:04.046Z,45.84
2023-05-14T13:29:32.484Z,45.93
2023-05-14T13:32:01.230Z,46.67
2023-05-14T13:34:30.000Z,46.44
2023-05-14T13:36:58.580Z,46.01
2023-05-14T13:39:27.600Z,46.64
2023-05-14T13:41:57.318Z,46.25
2023-05-14T13:44:26.391Z,47.37
2023-05-14T13:47:03.277Z,47.60
2023-05-14T13:49:41.517Z,46.65
2023-05-14T13:52:13.237Z,46.52
2023-05-14T13:54:41.807Z,46.18
2023-05-14T13:57:11.339Z,46.64
2023-05-14T13:59:39.800Z,45.73
2023-05-14T14:02:09.302Z,45.92
2023-05-14T14:04:38.301Z,45.59
2023-05-14T14:07:07.003Z,46.73
2023-05-14T14:09:37.523Z,46.27
2023-05-14T14:12:06.949Z,46.32
2023-05-14T14:14:35.821Z,46.05
2023-05-14T14:17:05.130Z,46.11
2023-05-14T14:19:34.109Z,46.12
2023-05-14T14:22:02.786Z,46.73
2023-05-14T14:24:31.691Z,47.17
2023-05-14T14:27:02.539Z,47.59
2023-05-14T14:29:31.621Z,47.55
2023-05-14T14:32:00.468Z,47.69
2023-05-14T14:34:29.304Z,48.29
2023-05-14T14:36:58.273Z,48.39
2023-05-14T14:39:27.980Z,47.92
2023-05-14T14:41:56.688Z,48.09
2023-05-14T14:44:25.782Z,47.92
2023-05-14T14:46:54.671Z,47.97
2023-05-14T14:49:24.169Z,48.96
2023-05-14T14:51:53.468Z,48.85
2023-05-14T14:54:24.774Z,47.44
2023-05-14T14:56:56.398Z,47.19
2023-05-14T14:59:25.267Z,47.11
2023-05-14T15:01:54.290Z,46.92
2023-05-14T15:04:23.087Z,47.35
2023-05-14T15:06:51.941Z,48.54
2023-05-14T15:09:20.716Z,48.58
2023-05-14T15:11:49.810Z,48.36
2023-05-14T15:14:18.399Z,48.40
2023-05-14T15:16:49.505Z,48.70
2023-05-14T15:19:19.600Z,48.03
2023-05-14T15:21:48.560Z,47.75
2023-05-14T15:24:17.045Z,48.81
2023-05-14T15:26:50.573Z,49.72
2023-05-14T15:29:23.306Z,50.11
2023-05-14T15:31:52.257Z,49.91
2023-05-14T15:34:21.184Z,49.48
2023-05-14T15:36:49.779Z,49.54
2023-05-14T15:39:18.785Z,48.61
2023-05-14T15:41:47.878Z,48.19
2023-05-14T15:44:16.987Z,48.48
2023-05-14T15:46:45.897Z,49.43
2023-05-14T15:49:14.652Z,49.78
2023-05-14T15:51:43.868Z,49.97
2023-05-14T15:54:12.522Z,49.25
2023-05-14T15:56:41.620Z,47.96
2023-05-14T15:59:14.908Z,47.40
2023-05-14T16:01:46.314Z,47.69
2023-05-14T16:04:21.697Z,48.25
2023-05-14T16:06:55.370Z,47.91
2023-05-14T16:09:28.254Z,48.10
2023-05-14T16:11:58.729Z,47.97
2023-05-14T16:14:27.612Z,48.07
2023-05-14T16:16:56.700Z,48.54
2023-05-14T16:19:25.895Z,49.09
2023-05-14T16:21:54.787Z,49.66
2023-05-14T16:24:24.018Z,49.86
2023-05-14T16:26:52.865Z,49.84
2023-05-14T16:29:22.087Z,49.34
2023-05-14T16:31:51.021Z,49.06
2023-05-14T16:34:19.968Z,49.50
2023-05-14T16:36:48.572Z,49.53
2023-05-14T16:39:18.062Z,50.71
2023-05-14T16:41:56.882Z,51.38
2023-05-14T16:44:25.750Z,51.90
2023-05-14T16:46:54.694Z,51.57
2023-05-14T16:49:23.648Z,51.52
2023-05-14T16:51:52.213Z,52.53
2023-05-14T16:54:21.105Z,53.87
2023-05-14T16:56:49.814Z,54.16
2023-05-14T16:59:18.802Z,54.66
2023-05-14T17:01:48.627Z,54.83
2023-05-14T17:04:18.456Z,54.76
2023-05-14T17:06:47.870Z,54.64
2023-05-14T17:09:18.231Z,54.51
2023-05-14T17:11:47.339Z,54.50
2023-05-14T17:14:16.535Z,54.84
2023-05-14T17:16:45.638Z,55.28
2023-05-14T17:19:15.518Z,56.40
2023-05-14T17:21:44.220Z,57.15
2023-05-14T17:24:13.637Z,58.36
2023-05-14T17:26:42.521Z,59.24
2023-05-14T17:29:11.853Z,60.00
2023-05-14T17:31:41.239Z,59.86
2023-05-14T17:34:10.411Z,59.41
2023-05-14T17:36:40.223Z,59.32
2023-05-14T17:39:10.268Z,59.50
2023-05-14T17:41:39.244Z,59.22
2023-05-14T17:44:13.994Z,58.99
2023-05-14T17:46:45.783Z,59.01
2023-05-14T17:49:18.601Z,58.97
2023-05-14T17:52:01.337Z,57.58
2023-05-14T17:54:30.840Z,58.06
2023-05-14T17:56:59.935Z,58.48
2023-05-14T17:59:28.920Z,58.61
2023-05-14T18:02:00.956Z,58.34
2023-05-14T18:04:30.087Z,58.05
2023-05-14T18:06:58.912Z,58.54
2023-05-14T18:09:28.392Z,59.21
2023-05-14T18:11:58.306Z,60.06
2023-05-14T18:14:29.034Z,60.76
2023-05-14T18:16:59.088Z,61.24
2023-05-14T18:19:27.823Z,61.88
2023-05-14T18:21:58.144Z,63.18
2023-05-14T18:24:27.881Z,64.19
2023-05-14T18:26:57.803Z,62.42
2023-05-14T18:29:27.717Z,61.28
2023-05-14T18:31:56.887Z,60.78
2023-05-14T18:34:27.720Z,60.79
2023-05-14T18:36:58.780Z,61.00
2023-05-14T18:39:31.429Z,61.43
2023-05-14T18:42:09.041Z,62.54
2023-05-14T18:44:46.038Z,63.57
2023-05-14T18:47:15.332Z,64.08
2023-05-14T18:49:45.228Z,64.47
2023-05-14T18:56:10.302Z,65.74
2023-05-14T19:00:10.030Z,66.72
2023-05-14T19:02:40.760Z,67.93
2023-05-14T19:05:10.024Z,68.88
2023-05-14T19:07:39.594Z,69.21
2023-05-14T19:10:11.965Z,70.28
2023-05-14T19:12:47.707Z,71.00
2023-05-14T19:15:18.488Z,71.27
2023-05-14T19:17:51.768Z,71.54
2023-05-14T19:20:21.578Z,71.78
2023-05-14T19:22:51.612Z,72.24
2023-05-14T19:25:21.327Z,72.98
2023-05-14T19:27:51.881Z,73.29
2023-05-14T19:30:26.767Z,73.85
2023-05-14T19:33:08.833Z,74.34
2023-05-14T19:35:54.656Z,74.74
2023-05-14T19:38:25.285Z,75.02
2023-05-14T19:40:57.552Z,75.91
2023-05-14T19:43:30.068Z,76.69
2023-05-14T19:46:01.589Z,77.42
2023-05-14T19:48:41.059Z,78.29
2023-05-14T19:51:20.866Z,79.57
2023-05-14T19:53:51.224Z,80.12
2023-05-14T19:56:20.914Z,81.10
2023-05-14T19:58:51.953Z,81.46
2023-05-14T20:01:22.719Z,81.85
2023-05-14T20:03:54.901Z,82.11
2023-05-14T20:06:30.322Z,82.98
2023-05-14T20:09:16.095Z,83.78
2023-05-14T20:12:08.117Z,84.20
2023-05-14T20:14:41.871Z,85.24
2023-05-14T20:17:11.364Z,85.66
2023-05-14T20:19:40.342Z,85.78
2023-05-14T20:22:09.982Z,86.42
2023-05-14T20:24:41.630Z,86.16
2023-05-14T20:27:11.744Z,86.45
2023-05-14T20:29:41.087Z,86.63
2023-05-14T20:32:10.384Z,86.68
2023-05-14T20:34:39.494Z,87.20
2023-05-14T20:37:09.093Z,87.21
2023-05-14T20:39:38.009Z,87.02
2023-05-14T20:42:07.532Z,87.27
2023-05-14T20:44:40.694Z,87.03
2023-05-14T20:47:24.810Z,87.70
2023-05-14T20:50:24.746Z,88.11
2023-05-14T20:52:57.342Z,88.52
2023-05-14T20:55:33.650Z,88.82
2023-05-14T20:58:05.357Z,89.13
2023-05-14T21:00:36.996Z,89.52
2023-05-14T21:03:07.034Z,90.05
2023-05-14T21:05:40.723Z,90.30
2023-05-14T21:08:12.578Z,91.21
2023-05-14T21:10:46.534Z,91.77
2023-05-14T21:13:18.170Z,92.18
2023-05-14T21:15:50.221Z,92.78
2023-05-14T21:18:28.884Z,94.10
2023-05-14T21:21:04.526Z,95.42
2023-05-14T21:23:37.554Z,96.63
2023-05-14T21:26:11.887Z,97.79
2023-05-14T21:28:40.979Z,98.14
2023-05-14T21:31:12.760Z,97.95
2023-05-14T21:33:45.898Z,98.37
2023-05-14T21:36:17.733Z,98.57
2023-05-14T21:38:47.228Z,99.02
2023-05-14T21:41:15.781Z,99.57
2023-05-14T21:43:45.674Z,99.93
2023-05-14T21:46:14.486Z,99.99
2023-05-14T21:48:43.496Z,100.00
2023-05-14T21:51:12.372Z,100.00
2023-05-14T21:53:42.173Z,100.00
2023-05-14T21:56:10.753Z,100.00
2023-05-14T21:58:39.348Z,100.00
2023-05-14T22:01:09.706Z,100.00
2023-05-14T22:03:38.700Z,100.00
2023-05-14T22:06:07.751Z,100.00
2023-05-14T22:08:36.233Z,100.00
2023-05-14T22:11:05.112Z,100.00
2023-05-14T22:13:35.659Z,100.00
2023-05-14T22:16:12.029Z,100.00
2023-05-14T22:18:43.212Z,100.00
2023-05-14T22:21:11.736Z,100.00
2023-05-14T22:23:40.432Z,100.00
2023-05-14T22:26:08.998Z,100.00
2023-05-14T22:28:40.347Z,100.00
2023-05-14T22:31:09.408Z,100.00
2023-05-14T22:33:38.460Z,100.00
2023-05-14T22:36:10.890Z,100.00
2023-05-14T22:38:45.468Z,100.00
2023-05-14T22:41:23.945Z,100.00
2023-05-14T22:43:58.464Z,100.00
2023-05-14T22:46:32.608Z,100.00
2023-05-14T22:49:05.859Z,100.00
2023-05-14T22:51:38.176Z,100.00
2023-05-14T22:54:13.006Z,100.00
2023-05-14T22:56:44.424Z,100.00
2023-05-14T22:59:17.006Z,100.00
2023-05-14T23:01:49.784Z,100.00
2023-05-14T23:04:19.185Z,100.00
2023-05-14T23:06:47.891Z,100.00
2023-05-14T23:09:17.292Z,100.00
2023-05-14T23:11:46.502Z,100.00
2023-05-14T23:14:24.793Z,100.00
2023-05-14T23:16:57.398Z,100.00
2023-05-14T23:19:28.813Z,100.00
2023-05-14T23:22:01.748Z,100.00
2023-05-14T23:24:36.919Z,100.00
2023-05-14T23:27:09.555Z,100.00
2023-05-14T23:29:42.206Z,100.00
2023-05-14T23:32:13.177Z,100.00
2023-05-14T23:34:45.740Z,100.00
2023-05-14T23:37:19.125Z,100.00
2023-05-14T23:39:56.055Z,100.00
2023-05-14T23:42:26.818Z,100.00
2023-05-14T23:44:56.014Z,100.00
2023-05-14T23:47:24.708Z,100.00
2023-05-14T23:49:56.213Z,100.00
2023-05-14T23:52:27.848Z,100.00
2023-05-14T23:55:01.782Z,100.00
2023-05-14T23:57:36.042Z,100.00
